createdAt,value
2022-10-22T00:02:21.133Z,14.65
2022-10-22T00:04:48.780Z,14.64
2022-10-22T00:07:16.289Z,14.66
2022-10-22T00:09:42.965Z,14.57
2022-10-22T00:12:10.062Z,14.53
2022-10-22T00:14:37.321Z,14.35
2022-10-22T00:17:05.867Z,14.23
2022-10-22T00:19:37.538Z,14.17
2022-10-22T00:22:05.833Z,14.16
2022-10-22T00:24:34.218Z,14.18
2022-10-22T00:27:01.426Z,14.20
2022-10-22T00:29:28.361Z,14.21
2022-10-22T00:34:23.053Z,14.18
2022-10-22T00:36:50.344Z,14.24
2022-10-22T00:39:18.409Z,14.27
2022-10-22T00:41:46.656Z,14.32
2022-10-22T00:44:50.809Z,14.39
2022-10-22T00:47:18.893Z,14.33
2022-10-22T00:49:46.885Z,14.22
2022-10-22T00:52:14.347Z,14.22
2022-10-22T00:54:41.450Z,14.11
2022-10-22T00:57:08.374Z,14.10
2022-10-22T00:59:35.728Z,14.11
2022-10-22T01:02:02.369Z,14.18
2022-10-22T01:04:29.058Z,14.21
2022-10-22T01:06:55.815Z,14.17
2022-10-22T01:09:31.516Z,14.17
2022-10-22T01:12:04.302Z,14.11
2022-10-22T01:14:40.223Z,14.13
2022-10-22T01:17:23.848Z,13.98
2022-10-22T01:20:12.169Z,13.92
2022-10-22T01:22:41.791Z,13.85
2022-10-22T01:25:12.483Z,13.70
2022-10-22T01:27:53.778Z,13.73
2022-10-22T01:30:20.624Z,13.75
2022-10-22T01:32:52.603Z,13.77
2022-10-22T01:35:24.030Z,13.84
2022-10-22T01:37:54.736Z,13.87
2022-10-22T01:40:22.120Z,13.89
2022-10-22T01:43:00.065Z,13.83
2022-10-22T01:45:27.562Z,13.89
2022-10-22T01:48:06.537Z,13.92
2022-10-22T01:50:41.155Z,13.96
2022-10-22T01:53:22.881Z,13.90
2022-10-22T01:55:59.172Z,13.91
2022-10-22T01:58:44.609Z,13.81
2022-10-22T02:01:23.986Z,13.82
2022-10-22T02:04:01.420Z,13.84
2022-10-22T02:06:29.846Z,13.92
2022-10-22T02:08:57.574Z,14.01
2022-10-22T02:11:24.230Z,14.10
2022-10-22T02:13:53.603Z,14.16
2022-10-22T02:16:47.987Z,14.28
2022-10-22T02:19:20.659Z,14.32
2022-10-22T02:21:47.380Z,14.33
2022-10-22T02:24:14.659Z,14.32
2022-10-22T02:26:54.408Z,14.36
2022-10-22T02:29:36.699Z,14.36
2022-10-22T02:32:06.066Z,14.36
2022-10-22T02:34:32.858Z,14.34
2022-10-22T02:37:00.507Z,14.34
2022-10-22T02:39:27.739Z,14.37
2022-10-22T02:41:55.662Z,14.38
2022-10-22T02:44:22.568Z,14.32
2022-10-22T02:46:50.344Z,14.30
2022-10-22T02:49:17.221Z,14.28
2022-10-22T02:51:43.918Z,14.30
2022-10-22T02:54:10.805Z,14.30
2022-10-22T02:56:38.082Z,14.29
2022-10-22T02:59:04.873Z,14.25
2022-10-22T03:01:31.575Z,14.23
2022-10-22T03:03:58.281Z,14.27
2022-10-22T03:08:53.277Z,14.28
2022-10-22T03:11:19.948Z,14.29
2022-10-22T03:13:46.551Z,14.34
2022-10-22T03:16:13.230Z,14.37
2022-10-22T03:18:39.823Z,14.40
2022-10-22T03:21:11.477Z,14.42
2022-10-22T03:23:39.919Z,14.43
2022-10-22T03:26:07.211Z,14.38
2022-10-22T03:28:35.366Z,14.38
2022-10-22T03:31:01.967Z,14.40
2022-10-22T03:33:28.573Z,14.42
2022-10-22T03:35:55.319Z,14.37
2022-10-22T03:38:22.106Z,14.31
2022-10-22T03:40:49.117Z,14.20
2022-10-22T03:43:16.364Z,14.24
2022-10-22T03:45:43.028Z,14.17
2022-10-22T03:48:09.659Z,14.05
2022-10-22T03:50:36.309Z,14.07
2022-10-22T03:53:02.979Z,14.08
2022-10-22T03:55:29.958Z,13.98
2022-10-22T03:57:56.605Z,13.98
2022-10-22T04:00:23.269Z,13.96
2022-10-22T04:02:49.980Z,13.92
2022-10-22T04:05:16.696Z,13.87
2022-10-22T04:07:43.590Z,13.82
2022-10-22T04:10:10.481Z,13.94
2022-10-22T04:12:37.124Z,14.00
2022-10-22T04:15:04.901Z,14.07
2022-10-22T04:17:36.224Z,14.21
2022-10-22T04:20:04.253Z,14.14
2022-10-22T04:22:33.762Z,14.02
2022-10-22T04:25:00.399Z,14.19
2022-10-22T04:27:30.884Z,14.26
2022-10-22T04:29:57.469Z,14.20
2022-10-22T04:32:26.176Z,14.04
2022-10-22T04:34:52.799Z,13.98
2022-10-22T04:37:19.576Z,14.12
2022-10-22T04:39:46.276Z,14.11
2022-10-22T04:42:13.010Z,14.14
2022-10-22T04:44:39.644Z,14.14
2022-10-22T04:47:06.329Z,14.13
2022-10-22T04:49:32.962Z,14.19
2022-10-22T04:51:59.654Z,14.19
2022-10-22T04:54:29.030Z,14.20
2022-10-22T04:56:58.736Z,14.17
2022-10-22T04:59:25.396Z,14.14
2022-10-22T05:01:52.006Z,14.17
2022-10-22T05:04:19.791Z,14.17
2022-10-22T05:06:46.955Z,14.14
2022-10-22T05:09:19.148Z,14.16
2022-10-22T05:11:48.827Z,14.18
2022-10-22T05:14:21.682Z,14.13
2022-10-22T05:16:49.139Z,14.07
2022-10-22T05:19:17.705Z,14.10
2022-10-22T05:21:44.271Z,14.04
2022-10-22T05:24:10.976Z,14.08
2022-10-22T05:26:37.518Z,14.23
2022-10-22T05:29:04.241Z,14.22
2022-10-22T05:31:30.779Z,14.22
2022-10-22T05:33:57.312Z,14.28
2022-10-22T05:36:25.990Z,14.29
2022-10-22T05:38:52.999Z,14.23
2022-10-22T05:41:20.535Z,14.20
2022-10-22T05:43:47.218Z,14.19
2022-10-22T05:46:18.674Z,14.20
2022-10-22T05:48:55.004Z,14.17
2022-10-22T05:51:21.928Z,14.13
2022-10-22T05:53:51.570Z,14.18
2022-10-22T05:56:18.215Z,14.15
2022-10-22T05:58:45.541Z,14.20
2022-10-22T06:01:22.397Z,14.20
2022-10-22T06:03:55.429Z,14.20
2022-10-22T06:06:31.152Z,14.19
2022-10-22T06:09:00.012Z,14.17
2022-10-22T06:11:28.888Z,14.25
2022-10-22T06:13:59.057Z,14.27
2022-10-22T06:16:25.644Z,14.30
2022-10-22T06:18:52.226Z,14.24
2022-10-22T06:21:18.871Z,14.20
2022-10-22T06:23:45.425Z,14.19
2022-10-22T06:26:12.059Z,14.26
2022-10-22T06:28:38.774Z,14.30
2022-10-22T06:31:05.440Z,14.29
2022-10-22T06:33:32.465Z,14.29
2022-10-22T06:36:09.306Z,14.30
2022-10-22T06:38:35.989Z,14.32
2022-10-22T06:41:06.116Z,14.37
2022-10-22T06:43:32.625Z,14.37
2022-10-22T06:46:00.593Z,14.36
2022-10-22T06:48:27.119Z,14.41
2022-10-22T06:50:53.607Z,14.41
2022-10-22T06:55:47.599Z,14.42
2022-10-22T06:58:14.089Z,14.47
2022-10-22T07:00:40.586Z,14.47
2022-10-22T07:03:07.072Z,14.54
2022-10-22T07:05:34.190Z,14.48
2022-10-22T07:08:00.667Z,14.57
2022-10-22T07:10:29.963Z,14.64
2022-10-22T07:12:57.723Z,14.60
2022-10-22T07:15:24.201Z,14.70
2022-10-22T07:17:51.793Z,14.76
2022-10-22T07:20:19.122Z,14.85
2022-10-22T07:22:45.831Z,14.90
2022-10-22T07:25:12.366Z,14.89
2022-10-22T07:27:39.193Z,14.92
2022-10-22T07:30:06.192Z,14.98
2022-10-22T07:32:32.733Z,15.08
2022-10-22T07:34:59.210Z,15.19
2022-10-22T07:37:25.687Z,15.28
2022-10-22T07:39:52.205Z,15.32
2022-10-22T07:42:18.827Z,15.33
2022-10-22T07:44:45.465Z,15.37
2022-10-22T07:47:12.021Z,15.22
2022-10-22T07:49:38.542Z,15.19
2022-10-22T07:52:05.225Z,15.16
2022-10-22T07:54:31.699Z,15.14
2022-10-22T07:56:58.186Z,15.17
2022-10-22T07:59:24.676Z,15.17
2022-10-22T08:01:51.193Z,15.39
2022-10-22T08:04:17.651Z,15.48
2022-10-22T08:06:47.168Z,15.45
2022-10-22T08:09:13.978Z,15.45
2022-10-22T08:11:40.601Z,15.42
2022-10-22T08:14:07.080Z,15.41
2022-10-22T08:16:33.560Z,15.48
2022-10-22T08:19:00.109Z,15.48
2022-10-22T08:21:26.759Z,15.53
2022-10-22T08:23:53.383Z,15.63
2022-10-22T08:26:20.035Z,15.67
2022-10-22T08:28:46.560Z,15.70
2022-10-22T08:31:13.484Z,15.54
2022-10-22T08:33:40.020Z,15.46
2022-10-22T08:36:06.869Z,15.43
2022-10-22T08:38:35.267Z,15.43
2022-10-22T08:41:10.973Z,15.29
2022-10-22T08:43:37.471Z,15.43
2022-10-22T08:46:08.354Z,15.63
2022-10-22T08:48:46.011Z,15.85
2022-10-22T08:51:13.584Z,16.01
2022-10-22T08:53:41.929Z,16.09
2022-10-22T08:56:08.925Z,16.21
2022-10-22T08:58:38.224Z,16.19
2022-10-22T09:01:12.729Z,16.09
2022-10-22T09:03:58.091Z,16.17
2022-10-22T09:06:25.682Z,16.25
2022-10-22T09:08:55.287Z,16.33
2022-10-22T09:11:21.840Z,16.39
2022-10-22T09:13:48.688Z,16.50
2022-10-22T09:16:19.492Z,16.55
2022-10-22T09:18:55.702Z,16.74
2022-10-22T09:21:40.684Z,16.67
2022-10-22T09:24:14.308Z,16.75
2022-10-22T09:26:41.785Z,16.78
2022-10-22T09:29:10.588Z,16.91
2022-10-22T09:31:37.272Z,17.00
2022-10-22T09:34:07.520Z,17.05
2022-10-22T09:36:34.457Z,17.16
2022-10-22T09:39:01.208Z,17.28
2022-10-22T09:41:29.828Z,17.30
2022-10-22T09:43:56.882Z,17.41
2022-10-22T09:46:24.860Z,17.49
2022-10-22T09:49:06.730Z,17.54
2022-10-22T09:51:37.968Z,17.71
2022-10-22T09:54:13.959Z,17.82
2022-10-22T09:56:43.475Z,17.85
2022-10-22T09:59:16.388Z,17.94
2022-10-22T10:01:44.511Z,17.92
2022-10-22T10:04:12.718Z,17.95
2022-10-22T10:06:40.571Z,18.03
2022-10-22T10:09:16.370Z,17.96
2022-10-22T10:11:43.185Z,17.98
2022-10-22T10:14:31.090Z,18.04
2022-10-22T10:16:59.212Z,18.04
2022-10-22T10:19:28.602Z,18.12
2022-10-22T10:22:01.202Z,18.18
2022-10-22T10:24:27.682Z,18.24
2022-10-22T10:27:14.424Z,18.23
2022-10-22T10:29:52.928Z,18.27
2022-10-22T10:32:26.247Z,18.41
2022-10-22T10:35:11.452Z,18.52
2022-10-22T10:37:41.013Z,18.66
2022-10-22T10:40:23.670Z,18.73
2022-10-22T10:42:55.831Z,18.59
2022-10-22T10:45:34.545Z,18.63
2022-10-22T10:48:07.076Z,18.57
2022-10-22T10:50:52.449Z,18.57
2022-10-22T10:53:21.931Z,18.48
2022-10-22T10:56:11.759Z,18.58
2022-10-22T10:58:45.049Z,18.74
2022-10-22T11:01:18.538Z,18.83
2022-10-22T11:03:52.284Z,18.91
2022-10-22T11:06:21.667Z,18.84
2022-10-22T11:09:00.290Z,18.71
2022-10-22T11:11:30.490Z,18.48
2022-10-22T11:14:35.630Z,18.32
2022-10-22T11:17:03.866Z,18.30
2022-10-22T11:19:50.338Z,18.52
2022-10-22T11:22:26.637Z,18.57
2022-10-22T11:25:16.773Z,18.59
2022-10-22T11:27:51.643Z,18.56
2022-10-22T11:30:19.719Z,18.74
2022-10-22T11:32:47.333Z,18.71
2022-10-22T11:35:15.385Z,18.80
2022-10-22T11:37:42.065Z,18.79
2022-10-22T11:40:14.596Z,18.81
2022-10-22T11:42:45.292Z,18.79
2022-10-22T11:45:14.799Z,18.84
2022-10-22T11:47:53.500Z,18.91
2022-10-22T11:50:20.346Z,18.88
2022-10-22T11:53:07.851Z,18.87
2022-10-22T11:55:46.093Z,18.93
2022-10-22T11:58:31.284Z,18.91
2022-10-22T12:01:09.972Z,18.88
2022-10-22T12:03:41.169Z,18.68
2022-10-22T12:06:15.860Z,18.57
2022-10-22T12:08:48.899Z,18.59
2022-10-22T12:11:35.783Z,18.55
2022-10-22T12:14:03.891Z,18.69
2022-10-22T12:16:54.541Z,18.69
2022-10-22T12:19:23.017Z,18.73
2022-10-22T12:21:53.787Z,18.75
2022-10-22T12:24:21.321Z,18.70
2022-10-22T12:26:49.896Z,18.80
2022-10-22T12:29:16.618Z,18.86
2022-10-22T12:31:44.435Z,18.92
2022-10-22T12:34:13.404Z,19.02
2022-10-22T12:36:39.896Z,19.05
2022-10-22T12:39:11.324Z,19.01
2022-10-22T12:41:38.479Z,19.01
2022-10-22T12:44:05.425Z,18.88
2022-10-22T12:46:35.185Z,18.94
2022-10-22T12:49:02.540Z,18.97
2022-10-22T12:51:29.057Z,19.02
2022-10-22T12:54:01.938Z,19.08
2022-10-22T12:56:29.104Z,19.10
2022-10-22T12:58:57.333Z,19.09
2022-10-22T13:01:24.625Z,19.04
2022-10-22T13:03:51.746Z,18.94
2022-10-22T13:06:18.272Z,18.85
2022-10-22T13:09:00.108Z,18.85
2022-10-22T13:11:48.096Z,18.82
2022-10-22T13:14:30.835Z,18.78
2022-10-22T13:17:06.520Z,18.71
2022-10-22T13:19:36.990Z,18.72
2022-10-22T13:22:03.461Z,18.70
2022-10-22T13:24:31.089Z,18.81
2022-10-22T13:26:57.588Z,18.85
2022-10-22T13:29:24.153Z,18.84
2022-10-22T13:31:52.019Z,18.92
2022-10-22T13:34:22.628Z,18.87
2022-10-22T13:36:49.369Z,18.86
2022-10-22T13:39:18.944Z,18.85
2022-10-22T13:41:45.703Z,18.90
2022-10-22T13:44:12.266Z,18.98
2022-10-22T13:46:42.694Z,18.91
2022-10-22T13:49:16.458Z,18.84
2022-10-22T13:51:43.151Z,18.82
2022-10-22T13:54:11.150Z,18.75
2022-10-22T13:56:37.692Z,18.74
2022-10-22T13:59:04.249Z,18.70
2022-10-22T14:01:30.771Z,18.67
2022-10-22T14:03:59.012Z,18.61
2022-10-22T14:06:28.598Z,18.55
2022-10-22T14:08:58.391Z,18.58
2022-10-22T14:11:27.285Z,18.55
2022-10-22T14:13:54.593Z,18.51
2022-10-22T14:16:22.130Z,18.47
2022-10-22T14:18:48.893Z,18.49
2022-10-22T14:21:15.607Z,18.47
2022-10-22T14:23:43.137Z,18.40
2022-10-22T14:26:12.945Z,18.28
2022-10-22T14:28:46.057Z,18.28
2022-10-22T14:31:26.589Z,18.28
2022-10-22T14:33:53.127Z,18.22
2022-10-22T14:36:19.653Z,18.29
2022-10-22T14:38:46.820Z,18.24
2022-10-22T14:41:23.509Z,18.25
2022-10-22T14:43:50.324Z,18.25
2022-10-22T14:46:17.327Z,18.18
2022-10-22T14:48:43.892Z,18.17
2022-10-22T14:51:14.186Z,18.12
2022-10-22T14:53:41.067Z,18.01
2022-10-22T14:56:09.770Z,17.96
2022-10-22T14:58:37.449Z,17.93
2022-10-22T15:01:04.210Z,17.88
2022-10-22T15:03:31.491Z,17.82
2022-10-22T15:06:02.550Z,17.84
2022-10-22T15:08:29.234Z,17.78
2022-10-22T15:11:03.527Z,17.73
2022-10-22T15:13:30.251Z,17.63
2022-10-22T15:15:58.208Z,17.63
2022-10-22T15:18:31.766Z,17.62
2022-10-22T15:20:59.295Z,17.60
2022-10-22T15:23:29.392Z,17.60
2022-10-22T15:26:00.697Z,17.55
2022-10-22T15:28:27.259Z,17.51
2022-10-22T15:31:00.909Z,17.49
2022-10-22T15:33:32.262Z,17.47
2022-10-22T15:35:59.069Z,17.43
2022-10-22T15:41:05.450Z,17.39
2022-10-22T15:43:35.908Z,17.33
2022-10-22T15:46:25.133Z,17.29
2022-10-22T15:48:52.663Z,17.27
2022-10-22T15:51:30.913Z,17.26
2022-10-22T15:53:58.689Z,17.19
2022-10-22T15:56:29.589Z,17.12
2022-10-22T15:59:09.831Z,17.05
2022-10-22T16:01:46.165Z,16.97
2022-10-22T16:04:13.292Z,16.91
2022-10-22T16:06:52.523Z,16.84
2022-10-22T16:09:20.638Z,16.77
2022-10-22T16:11:47.378Z,16.72
2022-10-22T16:14:15.139Z,16.66
2022-10-22T16:16:45.583Z,16.62
2022-10-22T16:19:12.944Z,16.56
2022-10-22T16:21:39.700Z,16.50
2022-10-22T16:24:10.231Z,16.45
2022-10-22T16:26:37.012Z,16.40
2022-10-22T16:29:04.279Z,16.35
2022-10-22T16:31:31.055Z,16.32
2022-10-22T16:33:57.661Z,16.31
2022-10-22T16:36:24.161Z,16.28
2022-10-22T16:38:50.680Z,16.29
2022-10-22T16:41:20.839Z,16.27
2022-10-22T16:43:48.496Z,16.30
2022-10-22T16:46:15.848Z,16.32
2022-10-22T16:48:45.927Z,16.33
2022-10-22T16:51:13.745Z,16.33
2022-10-22T16:53:40.400Z,16.33
2022-10-22T16:56:13.533Z,16.32
2022-10-22T16:58:45.278Z,16.28
2022-10-22T17:01:11.909Z,16.22
2022-10-22T17:03:38.694Z,16.17
2022-10-22T17:06:05.340Z,16.16
2022-10-22T17:08:32.274Z,16.16
2022-10-22T17:10:58.856Z,16.13
2022-10-22T17:13:25.360Z,16.11
2022-10-22T17:15:51.893Z,16.10
2022-10-22T17:18:18.497Z,16.07
2022-10-22T17:20:45.026Z,16.08
2022-10-22T17:23:11.496Z,16.08
2022-10-22T17:25:42.761Z,16.01
2022-10-22T17:28:09.803Z,15.99
2022-10-22T17:30:40.786Z,15.96
2022-10-22T17:33:10.056Z,15.98
2022-10-22T17:35:39.371Z,15.93
2022-10-22T17:38:06.659Z,15.92
2022-10-22T17:40:35.182Z,15.93
2022-10-22T17:43:01.711Z,15.91
2022-10-22T17:45:28.228Z,15.86
2022-10-22T17:47:56.907Z,15.85
2022-10-22T17:50:23.394Z,15.78
2022-10-22T17:52:50.670Z,15.75
2022-10-22T17:55:17.252Z,15.72
2022-10-22T17:57:43.801Z,15.72
2022-10-22T18:00:16.250Z,15.70
2022-10-22T18:02:43.122Z,15.64
2022-10-22T18:05:10.212Z,15.58
2022-10-22T18:07:36.720Z,15.50
2022-10-22T18:10:03.773Z,15.50
2022-10-22T18:12:30.312Z,15.51
2022-10-22T18:14:56.849Z,15.52
2022-10-22T18:17:24.442Z,15.50
2022-10-22T18:19:50.955Z,15.49
2022-10-22T18:22:17.549Z,15.44
2022-10-22T18:24:44.136Z,15.41
2022-10-22T18:27:10.663Z,15.38
2022-10-22T18:29:37.169Z,15.30
2022-10-22T18:32:08.334Z,15.28
2022-10-22T18:34:39.327Z,15.27
2022-10-22T18:37:05.842Z,15.23
2022-10-22T18:39:32.337Z,15.20
2022-10-22T18:41:58.824Z,15.19
2022-10-22T18:44:25.504Z,15.17
2022-10-22T18:46:51.979Z,15.17
2022-10-22T18:49:18.649Z,15.14
2022-10-22T18:51:46.810Z,15.11
2022-10-22T18:54:25.505Z,15.08
2022-10-22T18:56:52.837Z,15.07
2022-10-22T18:59:20.473Z,15.04
2022-10-22T19:01:46.954Z,15.06
2022-10-22T19:04:13.984Z,15.05
2022-10-22T19:06:44.322Z,15.06
2022-10-22T19:09:12.128Z,15.04
2022-10-22T19:11:38.792Z,15.05
2022-10-22T19:14:05.345Z,14.99
2022-10-22T19:16:31.889Z,15.00
2022-10-22T19:19:01.729Z,15.01
2022-10-22T19:21:28.419Z,15.00
2022-10-22T19:23:55.823Z,14.97
2022-10-22T19:26:24.126Z,14.97
2022-10-22T19:28:50.716Z,15.00
2022-10-22T19:31:18.218Z,14.98
2022-10-22T19:33:44.721Z,14.99
2022-10-22T19:36:12.006Z,15.02
2022-10-22T19:38:39.305Z,14.98
2022-10-22T19:41:06.611Z,14.95
2022-10-22T19:43:33.232Z,14.96
2022-10-22T19:46:00.128Z,14.90
2022-10-22T19:48:28.749Z,14.84
2022-10-22T19:51:03.111Z,14.83
2022-10-22T19:53:32.820Z,14.86
2022-10-22T19:55:59.797Z,14.87
2022-10-22T19:58:26.814Z,14.85
2022-10-22T20:00:53.583Z,14.85
2022-10-22T20:03:20.313Z,14.80
2022-10-22T20:05:47.367Z,14.84
2022-10-22T20:08:14.206Z,14.86
2022-10-22T20:10:40.862Z,14.81
2022-10-22T20:13:07.456Z,14.79
2022-10-22T20:15:34.253Z,14.79
2022-10-22T20:18:00.838Z,14.78
2022-10-22T20:20:27.424Z,14.79
2022-10-22T20:22:54.448Z,14.78
2022-10-22T20:25:20.996Z,14.76
2022-10-22T20:27:47.491Z,14.76
2022-10-22T20:30:14.147Z,14.78
2022-10-22T20:32:41.175Z,14.76
2022-10-22T20:35:07.988Z,14.70
2022-10-22T20:37:35.281Z,14.75
2022-10-22T20:40:01.828Z,14.73
2022-10-22T20:42:28.829Z,14.76
2022-10-22T20:44:56.029Z,14.73
2022-10-22T20:47:27.296Z,14.73
2022-10-22T20:50:01.303Z,14.75
2022-10-22T20:52:28.156Z,14.77
2022-10-22T20:54:54.662Z,14.76
2022-10-22T20:57:21.202Z,14.76
2022-10-22T20:59:47.805Z,14.73
2022-10-22T21:02:14.312Z,14.75
2022-10-22T21:04:44.038Z,14.75
2022-10-22T21:07:12.166Z,14.73
2022-10-22T21:09:38.758Z,14.66
2022-10-22T21:12:06.429Z,14.63
2022-10-22T21:14:33.100Z,14.64
2022-10-22T21:16:59.880Z,14.65
2022-10-22T21:19:26.638Z,14.66
2022-10-22T21:21:53.251Z,14.71
2022-10-22T21:24:19.846Z,14.71
2022-10-22T21:26:46.439Z,14.70
2022-10-22T21:29:13.485Z,14.69
2022-10-22T21:31:40.760Z,14.69
2022-10-22T21:34:07.854Z,14.64
2022-10-22T21:36:34.381Z,14.60
2022-10-22T21:39:01.120Z,14.59
2022-10-22T21:41:27.740Z,14.60
2022-10-22T21:43:54.279Z,14.60
2022-10-22T21:46:21.667Z,14.57
2022-10-22T21:48:52.946Z,14.57
2022-10-22T21:51:20.036Z,14.52
2022-10-22T21:53:46.844Z,14.53
2022-10-22T21:56:15.421Z,14.48
2022-10-22T21:58:41.912Z,14.39
2022-10-22T22:01:08.532Z,14.29
2022-10-22T22:03:35.108Z,14.27
2022-10-22T22:06:03.326Z,14.27
2022-10-22T22:08:29.924Z,14.22
2022-10-22T22:11:03.394Z,14.20
2022-10-22T22:13:30.093Z,14.14
2022-10-22T22:16:02.453Z,14.13
2022-10-22T22:18:29.872Z,14.09
2022-10-22T22:20:57.001Z,14.11
2022-10-22T22:23:23.619Z,14.08
2022-10-22T22:25:50.139Z,14.08
2022-10-22T22:28:16.645Z,14.09
2022-10-22T22:30:43.265Z,14.10
2022-10-22T22:33:10.137Z,14.10
2022-10-22T22:35:37.096Z,14.10
2022-10-22T22:38:03.933Z,14.12
2022-10-22T22:40:33.022Z,14.11
2022-10-22T22:43:00.464Z,14.07
2022-10-22T22:45:27.134Z,14.02
2022-10-22T22:47:53.627Z,13.97
2022-10-22T22:50:20.251Z,13.87
2022-10-22T22:52:46.829Z,13.73
2022-10-22T22:55:13.438Z,13.68
2022-10-22T22:57:39.922Z,13.69
2022-10-22T23:00:06.814Z,13.66
2022-10-22T23:02:33.408Z,13.62
2022-10-22T23:05:00.160Z,13.60
2022-10-22T23:07:26.704Z,13.59
2022-10-22T23:09:53.288Z,13.55
2022-10-22T23:12:19.777Z,13.60
2022-10-22T23:14:46.431Z,13.55
2022-10-22T23:17:12.915Z,13.56
2022-10-22T23:19:39.463Z,13.53
2022-10-22T23:22:06.281Z,13.46
2022-10-22T23:24:32.994Z,13.51
2022-10-22T23:27:00.971Z,13.49
2022-10-22T23:29:28.208Z,13.48
2022-10-22T23:31:54.940Z,13.51
2022-10-22T23:34:22.643Z,13.54
2022-10-22T23:36:49.181Z,13.51
2022-10-22T23:39:16.800Z,13.44
2022-10-22T23:41:43.337Z,13.42
2022-10-22T23:44:10.266Z,13.45
2022-10-22T23:46:38.578Z,13.37
2022-10-22T23:49:05.817Z,13.41
2022-10-22T23:51:32.336Z,13.38
2022-10-22T23:54:00.185Z,13.31
2022-10-22T23:56:27.161Z,13.29
2022-10-22T23:58:54.026Z,13.24
